createdAt,value
2019-03-13T00:04:54.396Z,4.88
2019-03-13T00:09:59.462Z,4.69
2019-03-13T00:15:05.999Z,4.18
2019-03-13T00:20:11.924Z,4.93
2019-03-13T00:25:17.109Z,4.26
2019-03-13T00:30:23.613Z,4.84
2019-03-13T00:35:28.600Z,4.98
2019-03-13T00:40:33.548Z,5.09
2019-03-13T00:45:39.532Z,5.16
2019-03-13T00:50:46.533Z,4.41
2019-03-13T00:55:52.966Z,4.30
2019-03-13T01:01:05.422Z,4.85
2019-03-13T01:06:12.723Z,5.12
2019-03-13T01:11:17.463Z,4.85
2019-03-13T01:16:23.300Z,5.35
2019-03-13T01:21:27.975Z,5.46
2019-03-13T01:26:33.737Z,5.16
2019-03-13T01:31:52.103Z,5.32
2019-03-13T01:36:56.843Z,5.32
2019-03-13T01:42:02.816Z,4.99
2019-03-13T01:47:07.662Z,5.16
2019-03-13T01:52:13.996Z,5.44
2019-03-13T01:57:20.422Z,5.26
2019-03-13T02:02:26.804Z,5.33
2019-03-13T02:07:31.649Z,5.23
2019-03-13T02:12:36.297Z,5.23
2019-03-13T02:17:42.572Z,5.16
2019-03-13T02:22:47.323Z,5.25
2019-03-13T02:27:55.227Z,5.56
2019-03-13T02:33:00.172Z,5.41
2019-03-13T02:38:04.921Z,5.31
2019-03-13T02:43:09.559Z,5.35
2019-03-13T02:48:14.299Z,5.21
2019-03-13T02:53:19.056Z,5.40
2019-03-13T02:58:26.181Z,4.97
2019-03-13T03:03:32.221Z,5.33
2019-03-13T03:08:38.600Z,5.08
2019-03-13T03:13:43.337Z,5.45
2019-03-13T03:18:49.517Z,4.75
2019-03-13T03:23:55.806Z,4.77
2019-03-13T03:29:00.549Z,4.72
2019-03-13T03:34:05.226Z,4.96
2019-03-13T03:39:11.558Z,5.32
2019-03-13T03:44:18.490Z,5.48
2019-03-13T03:49:23.193Z,5.46
2019-03-13T03:54:28.046Z,5.43
2019-03-13T03:59:32.787Z,5.64
2019-03-13T04:04:39.073Z,5.30
2019-03-13T04:09:45.237Z,4.77
2019-03-13T04:14:51.107Z,5.22
2019-03-13T04:19:56.062Z,5.17
2019-03-13T04:25:18.514Z,5.32
2019-03-13T04:30:23.263Z,5.22
2019-03-13T04:35:29.540Z,5.59
2019-03-13T04:40:34.585Z,5.64
2019-03-13T04:45:40.585Z,5.55
2019-03-13T04:50:47.040Z,5.70
2019-03-13T04:55:52.652Z,5.63
2019-03-13T05:00:57.648Z,5.41
2019-03-13T05:06:04.546Z,5.77
2019-03-13T05:11:09.180Z,5.08
2019-03-13T05:16:14.029Z,5.62
2019-03-13T05:21:18.676Z,5.55
2019-03-13T05:26:23.718Z,5.65
2019-03-13T05:31:30.001Z,5.84
2019-03-13T05:36:36.072Z,5.99
2019-03-13T05:41:40.678Z,6.15
2019-03-13T05:46:46.888Z,6.08
2019-03-13T05:51:51.526Z,6.15
2019-03-13T05:56:56.679Z,6.38
2019-03-13T06:02:01.420Z,6.23
2019-03-13T06:07:06.166Z,6.12
2019-03-13T06:12:10.812Z,5.99
2019-03-13T06:17:15.546Z,6.34
2019-03-13T06:22:21.313Z,6.18
2019-03-13T06:27:27.590Z,6.44
2019-03-13T06:32:33.798Z,6.39
2019-03-13T06:37:38.517Z,6.56
2019-03-13T06:42:44.589Z,6.04
2019-03-13T06:47:50.390Z,4.95
2019-03-13T06:52:58.065Z,6.40
2019-03-13T06:58:02.808Z,6.32
2019-03-13T07:03:14.938Z,5.68
2019-03-13T07:08:36.665Z,6.32
2019-03-13T07:13:59.533Z,6.22
2019-03-13T07:19:05.810Z,7.13
2019-03-13T07:24:13.523Z,6.42
2019-03-13T07:29:22.768Z,6.78
2019-03-13T07:34:48.917Z,7.49
2019-03-13T07:40:07.586Z,7.58
2019-03-13T07:45:15.068Z,7.05
2019-03-13T07:50:24.858Z,7.96
2019-03-13T07:55:40.557Z,7.98
2019-03-13T08:00:49.683Z,8.21
2019-03-13T08:06:11.031Z,8.20
2019-03-13T08:11:31.138Z,8.16
2019-03-13T08:16:38.548Z,7.74
2019-03-13T08:21:55.879Z,8.40
2019-03-13T08:27:07.481Z,8.54
2019-03-13T08:32:22.973Z,8.38
2019-03-13T08:37:30.794Z,8.57
2019-03-13T08:42:44.542Z,8.61
2019-03-13T08:48:07.111Z,8.34
2019-03-13T08:53:22.805Z,8.61
2019-03-13T08:58:41.065Z,8.41
2019-03-13T09:03:50.517Z,9.37
2019-03-13T09:09:14.767Z,8.67
2019-03-13T09:14:29.697Z,8.76
2019-03-13T09:19:52.332Z,8.80
2019-03-13T09:25:14.820Z,8.46
2019-03-13T09:30:36.263Z,8.35
2019-03-13T09:35:57.982Z,8.44
2019-03-13T09:41:20.452Z,10.11
2019-03-13T09:46:29.700Z,9.29
2019-03-13T09:51:39.058Z,9.66
2019-03-13T09:56:45.503Z,9.66
2019-03-13T10:02:02.257Z,10.02
2019-03-13T10:07:11.408Z,10.52
2019-03-13T10:12:20.561Z,10.64
2019-03-13T10:17:29.504Z,9.72
2019-03-13T10:22:53.294Z,11.04
2019-03-13T10:28:08.882Z,10.78
2019-03-13T10:33:17.620Z,11.47
2019-03-13T10:38:37.416Z,10.45
2019-03-13T10:43:53.583Z,11.62
2019-03-13T10:49:03.387Z,12.04
2019-03-13T10:54:15.500Z,11.45
2019-03-13T10:59:21.680Z,10.92
2019-03-13T11:04:44.454Z,11.18
2019-03-13T11:09:51.237Z,10.87
2019-03-13T11:15:09.712Z,11.24
2019-03-13T11:20:32.876Z,10.89
2019-03-13T11:25:46.631Z,10.40
2019-03-13T11:30:53.016Z,11.50
2019-03-13T11:36:15.791Z,9.91
2019-03-13T11:41:22.060Z,10.80
2019-03-13T11:46:44.740Z,10.61
2019-03-13T11:51:51.098Z,11.06
2019-03-13T11:57:14.183Z,11.70
2019-03-13T12:02:36.846Z,10.64
2019-03-13T12:07:46.070Z,11.73
2019-03-13T12:13:11.617Z,11.55
2019-03-13T12:18:28.545Z,11.86
2019-03-13T12:23:47.011Z,11.38
2019-03-13T12:29:07.732Z,11.48
2019-03-13T12:34:20.151Z,11.10
2019-03-13T12:39:26.532Z,11.60
2019-03-13T12:44:38.442Z,11.52
2019-03-13T12:49:50.663Z,10.97
2019-03-13T12:55:06.180Z,10.43
2019-03-13T13:00:15.509Z,10.41
2019-03-13T13:05:37.655Z,10.56
2019-03-13T13:10:58.992Z,10.51
2019-03-13T13:16:17.455Z,10.49
2019-03-13T13:21:22.304Z,11.36
2019-03-13T13:26:27.044Z,10.08
2019-03-13T13:31:31.784Z,10.63
2019-03-13T13:36:36.528Z,10.32
2019-03-13T13:41:41.269Z,9.80
2019-03-13T13:46:46.421Z,10.11
2019-03-13T13:51:51.271Z,10.48
2019-03-13T13:56:56.011Z,11.12
2019-03-13T14:02:00.764Z,10.75
2019-03-13T14:07:06.058Z,10.26
2019-03-13T14:12:10.755Z,10.00
2019-03-13T14:17:16.819Z,10.69
2019-03-13T14:22:22.039Z,10.88
2019-03-13T14:27:26.848Z,10.79
2019-03-13T14:32:31.669Z,10.76
2019-03-13T14:37:36.420Z,10.13
2019-03-13T14:42:41.773Z,10.31
2019-03-13T14:47:46.415Z,10.08
2019-03-13T14:52:51.873Z,10.25
2019-03-13T14:57:58.011Z,10.63
2019-03-13T15:03:03.251Z,10.96
2019-03-13T15:08:08.972Z,11.14
2019-03-13T15:13:14.335Z,10.84
2019-03-13T15:18:20.746Z,10.81
2019-03-13T15:23:25.458Z,10.66
2019-03-13T15:28:30.089Z,10.10
2019-03-13T15:33:36.908Z,10.07
2019-03-13T15:38:41.626Z,10.27
2019-03-13T15:43:47.103Z,9.74
2019-03-13T15:48:53.596Z,10.24
2019-03-13T15:53:59.560Z,9.55
2019-03-13T15:59:04.658Z,9.35
2019-03-13T16:04:10.680Z,9.93
2019-03-13T16:09:15.287Z,10.50
2019-03-13T16:14:20.358Z,10.00
2019-03-13T16:19:26.062Z,9.76
2019-03-13T16:24:31.081Z,9.49
2019-03-13T16:29:35.819Z,9.89
2019-03-13T16:34:40.764Z,9.95
2019-03-13T16:39:46.070Z,10.11
2019-03-13T16:44:54.025Z,9.51
2019-03-13T16:50:00.552Z,9.50
2019-03-13T16:55:10.259Z,9.10
2019-03-13T17:00:25.414Z,8.63
2019-03-13T17:05:32.435Z,8.65
2019-03-13T17:10:39.108Z,8.25
2019-03-13T17:15:46.295Z,8.61
2019-03-13T17:20:54.748Z,8.37
2019-03-13T17:26:01.074Z,8.04
2019-03-13T17:31:07.363Z,7.32
2019-03-13T17:36:14.139Z,7.13
2019-03-13T17:41:20.755Z,7.42
2019-03-13T17:46:27.433Z,7.20
2019-03-13T17:51:33.424Z,6.57
2019-03-13T17:56:39.646Z,6.19
2019-03-13T18:01:45.490Z,6.73
2019-03-13T18:06:51.786Z,7.77
2019-03-13T18:11:59.724Z,7.69
2019-03-13T18:17:04.467Z,7.28
2019-03-13T18:22:11.360Z,7.30
2019-03-13T18:27:19.270Z,7.88
2019-03-13T18:32:24.023Z,7.71
2019-03-13T18:37:28.965Z,6.51
2019-03-13T18:42:33.708Z,7.27
2019-03-13T18:47:39.888Z,7.43
2019-03-13T18:52:44.833Z,6.83
2019-03-13T18:57:51.533Z,6.84
2019-03-13T19:02:59.337Z,7.18
2019-03-13T19:08:04.076Z,6.97
2019-03-13T19:13:10.159Z,6.37
2019-03-13T19:18:14.783Z,6.48
2019-03-13T19:23:20.971Z,6.46
2019-03-13T19:28:26.205Z,5.85
2019-03-13T19:33:32.502Z,6.00
2019-03-13T19:38:40.998Z,6.17
2019-03-13T19:43:46.664Z,6.32
2019-03-13T19:48:54.247Z,5.81
2019-03-13T19:53:59.021Z,5.83
2019-03-13T19:59:03.793Z,6.07
2019-03-13T20:04:09.168Z,5.82
2019-03-13T20:09:16.260Z,5.88
2019-03-13T20:14:22.320Z,6.12
2019-03-13T20:19:30.213Z,6.17
2019-03-13T20:24:38.682Z,5.83
2019-03-13T20:29:42.488Z,4.70
2019-03-13T20:34:49.471Z,5.00
2019-03-13T20:39:55.978Z,3.91
2019-03-13T20:45:00.770Z,4.87
2019-03-13T20:50:08.537Z,4.51
2019-03-13T20:55:15.723Z,4.15
2019-03-13T21:00:27.843Z,4.09
2019-03-13T21:05:32.667Z,4.48
2019-03-13T21:10:37.430Z,4.63
2019-03-13T21:15:44.036Z,4.94
2019-03-13T21:20:50.396Z,5.23
2019-03-13T21:25:56.367Z,5.19
2019-03-13T21:31:04.129Z,5.59
2019-03-13T21:36:10.255Z,5.61
2019-03-13T21:41:15.818Z,5.54
2019-03-13T21:46:22.094Z,5.51
2019-03-13T21:51:26.839Z,4.83
2019-03-13T21:56:31.682Z,4.98
2019-03-13T22:01:36.425Z,5.36
2019-03-13T22:06:41.166Z,5.14
2019-03-13T22:11:45.910Z,5.47
2019-03-13T22:16:52.085Z,5.69
2019-03-13T22:21:56.729Z,5.54
2019-03-13T22:27:01.469Z,5.30
2019-03-13T22:32:07.647Z,5.59
2019-03-13T22:37:12.388Z,5.10
2019-03-13T22:42:17.134Z,5.07
2019-03-13T22:47:21.974Z,5.35
2019-03-13T22:52:26.719Z,5.08
2019-03-13T22:57:31.463Z,4.86
2019-03-13T23:02:36.064Z,4.85
2019-03-13T23:07:44.021Z,5.14
2019-03-13T23:12:50.102Z,5.38
2019-03-13T23:17:54.833Z,5.02
2019-03-13T23:22:59.680Z,5.10
2019-03-13T23:28:05.284Z,4.42
2019-03-13T23:33:11.627Z,4.27
2019-03-13T23:38:18.927Z,4.67
2019-03-13T23:43:26.637Z,4.89
2019-03-13T23:48:32.043Z,3.82
2019-03-13T23:53:36.735Z,4.21
2019-03-13T23:58:41.480Z,4.49
